Time;durP1;ratioP1;P1;durP2;ratioP2;P2;SDS_P1;SDS_P2;PMS_P1;PMS_P2;Temp;Humidity;BMP_temperature;BMP_pressure;BME280_temperature;BME280_humidity;BME280_pressure;Samples;Min_cycle;Max_cycle;Signal;HPM_P1;HPM_P2
2022/10/10 00:01:17;;;;;;;0.50;0.23;;;17.20;98.30;;;17.88;51.42;101172.88;4953415;28;97647;-52
2022/10/10 00:03:43;;;;;;;0.20;0.10;;;17.10;99.90;;;17.85;51.34;101167.72;4954014;28;97326;-46
2022/10/10 00:06:11;;;;;;;0.20;0.13;;;17.10;99.90;;;17.83;51.14;101169.63;4958381;28;97191;-47
2022/10/10 00:08:38;;;;;;;0.27;0.20;;;17.00;98.30;;;17.76;51.57;101158.44;4952682;28;97224;-49
2022/10/10 00:11:04;;;;;;;0.10;0.10;;;16.90;99.20;;;17.78;51.85;101166.34;4954446;28;97474;-49
2022/10/10 00:13:30;;;;;;;0.30;0.20;;;16.90;99.90;;;17.77;51.82;101169.97;4953945;28;98633;-49
2022/10/10 00:15:56;;;;;;;0.10;0.10;;;16.90;99.90;;;17.79;51.33;101162.72;4952795;28;97541;-51
2022/10/10 00:18:22;;;;;;;0.20;0.20;;;17.00;99.40;;;17.81;51.29;101159.06;4950111;28;97259;-48
2022/10/10 00:20:51;;;;;;;0.20;0.20;;;17.10;98.80;;;17.83;51.71;101172.31;4945076;28;97153;-49
2022/10/10 00:23:17;;;;;;;0.10;0.10;;;17.10;99.90;;;17.79;51.54;101162.72;4951929;28;98333;-50
2022/10/10 00:25:43;;;;;;;0.10;0.00;;;17.10;99.60;;;17.82;51.62;101167.91;4953334;28;97023;-51
2022/10/10 00:28:09;;;;;;;0.20;0.20;;;17.10;99.90;;;17.80;51.89;101159.16;4961093;28;98304;-46
2022/10/10 00:30:35;;;;;;;0.20;0.20;;;17.00;99.90;;;17.78;51.79;101161.88;4955197;28;96831;-50
2022/10/10 00:33:01;;;;;;;0.00;0.00;;;17.00;99.90;;;17.80;51.38;101167.16;4947399;28;108575;-48
2022/10/10 00:35:27;;;;;;;0.30;0.30;;;17.00;99.40;;;17.79;51.82;101170.72;4955768;28;97597;-48
2022/10/10 00:37:54;;;;;;;1.87;0.33;;;17.00;99.90;;;17.76;51.76;101168.25;4951070;28;97150;-45
2022/10/10 00:40:20;;;;;;;0.10;0.10;;;16.90;99.90;;;17.76;51.67;101162.91;4959646;28;97884;-47
2022/10/10 00:42:46;;;;;;;0.10;0.10;;;17.00;99.70;;;17.71;51.50;101165.00;4953103;28;97620;-48
2022/10/10 00:45:29;;;;;;;0.20;0.20;;;16.90;99.10;;;17.72;51.84;101161.38;4958235;28;97205;-49
2022/10/10 00:48:17;;;;;;;0.70;0.30;;;16.90;99.90;;;17.67;51.33;101163.44;4951392;28;97032;-50
2022/10/10 00:50:52;;;;;;;0.20;0.20;;;16.80;98.10;;;17.62;51.89;101160.13;4954741;28;97127;-47
2022/10/10 00:53:22;;;;;;;0.27;0.27;;;16.70;99.90;;;17.54;52.11;101158.78;4953276;28;97768;-50
2022/10/10 00:55:49;;;;;;;0.50;0.17;;;16.60;99.80;;;17.54;52.29;101157.94;4953772;28;98472;-46
2022/10/10 00:58:16;;;;;;;0.17;0.17;;;16.70;99.90;;;17.53;51.70;101161.53;4954818;28;103604;-50
2022/10/10 01:00:42;;;;;;;0.60;0.13;;;16.60;99.30;;;17.51;52.05;101158.09;4953964;28;97349;-47
2022/10/10 01:03:07;;;;;;;0.13;0.07;;;16.60;99.00;;;17.50;52.11;101157.25;4953169;28;96916;-51
2022/10/10 01:05:34;;;;;;;0.30;0.30;;;16.60;99.90;;;17.53;52.36;101146.41;4959699;28;97046;-47
2022/10/10 01:08:03;;;;;;;0.37;0.17;;;16.70;99.90;;;17.54;52.08;101148.13;4953048;28;96692;-46
2022/10/10 01:10:30;;;;;;;0.20;0.20;;;16.80;99.90;;;17.53;51.83;101149.06;4959033;28;96875;-52
2022/10/10 01:13:19;;;;;;;0.50;0.27;;;16.70;99.80;;;17.47;52.16;101141.41;4953648;28;97396;-48
2022/10/10 01:16:27;;;;;;;0.23;0.20;;;16.60;99.90;;;17.47;52.35;101140.53;4955018;28;102270;-47
2022/10/10 01:19:13;;;;;;;0.20;0.13;;;16.60;99.90;;;17.41;52.46;101141.75;4941777;28;101677;-47
2022/10/10 01:21:54;;;;;;;0.10;0.10;;;16.50;99.90;;;17.41;52.43;101140.91;4956495;28;97469;-51
2022/10/10 01:25:03;;;;;;;0.20;0.20;;;16.50;99.90;;;17.37;52.35;101140.22;4953612;28;97500;-49
2022/10/10 01:27:33;;;;;;;0.10;0.10;;;16.40;99.00;;;17.32;52.81;101142.25;4951844;28;99779;-48
2022/10/10 01:30:09;;;;;;;0.10;0.10;;;16.40;99.90;;;17.30;52.62;101137.97;4969764;28;96978;-48
2022/10/10 01:33:12;;;;;;;0.57;0.20;;;16.40;99.80;;;17.31;52.66;101127.22;4960161;28;97206;-47
2022/10/10 01:35:54;;;;;;;0.40;0.10;;;16.40;99.90;;;17.31;52.33;101129.88;4949431;28;101581;-56
2022/10/10 01:39:02;;;;;;;0.20;0.20;;;16.40;99.80;;;17.28;52.75;101130.06;4956904;28;99679;-50
2022/10/10 01:41:37;;;;;;;0.00;0.00;;;16.40;99.90;;;17.26;52.71;101131.94;4951411;28;102789;-46
2022/10/10 01:44:03;;;;;;;0.00;0.00;;;16.30;99.90;;;17.25;52.90;101130.22;4952292;28;97568;-50
2022/10/10 01:46:30;;;;;;;0.10;0.10;;;16.30;99.90;;;17.28;52.79;101130.06;4950366;28;120625;-47
2022/10/10 01:48:57;;;;;;;0.23;0.20;;;16.30;99.90;;;17.27;53.07;101123.00;4951587;28;97461;-45
2022/10/10 01:51:59;;;;;;;0.00;0.00;;;16.30;99.90;;;17.28;53.07;101114.06;4953112;28;97317;-49
2022/10/10 01:54:56;;;;;;;0.10;0.00;;;16.30;99.90;;;17.28;52.86;101119.38;4952071;28;97366;-46
2022/10/10 01:57:43;;;;;;;0.10;0.10;;;16.40;99.90;;;17.29;52.97;101118.44;4945176;28;103536;-46
2022/10/10 02:00:13;;;;;;;4.50;0.20;;;16.40;99.90;;;17.28;52.94;101103.38;4951785;28;101337;-45
2022/10/10 02:03:22;;;;;;;0.10;0.10;;;16.40;99.90;;;17.27;53.00;101125.66;4951088;28;97325;-50
2022/10/10 02:06:24;;;;;;;0.10;0.10;;;16.30;99.90;;;17.24;52.29;101112.53;4952179;28;97053;-48
2022/10/10 02:08:56;;;;;;;0.10;0.10;;;16.30;99.90;;;17.22;52.81;101109.09;4953937;28;97888;-46
2022/10/10 02:11:24;;;;;;;0.10;0.10;;;16.30;99.90;;;17.18;53.20;101115.50;4954235;28;100352;-45
2022/10/10 02:14:01;;;;;;;0.00;0.00;;;16.20;99.90;;;17.19;53.60;101109.22;4951731;28;97437;-49
2022/10/10 02:16:34;;;;;;;0.33;0.10;;;16.20;99.90;;;17.22;53.09;101109.09;4954152;28;97433;-48
2022/10/10 02:19:02;;;;;;;0.27;0.10;;;16.20;99.90;;;17.26;53.24;101110.63;4949587;28;97781;-46
2022/10/10 02:21:29;;;;;;;0.10;0.10;;;16.30;99.90;;;17.27;53.13;101106.16;4954780;28;97597;-46
2022/10/10 02:24:03;;;;;;;0.20;0.20;;;16.40;99.90;;;17.29;52.50;101102.44;4951641;28;106694;-48
2022/10/10 02:26:31;;;;;;;0.13;0.13;;;16.40;99.70;;;17.27;52.83;101099.00;4951231;28;97328;-49
2022/10/10 02:29:08;;;;;;;0.97;0.10;;;16.30;99.90;;;17.32;52.63;101094.25;4951956;28;97628;-46
2022/10/10 02:32:12;;;;;;;0.20;0.03;;;16.50;99.90;;;17.35;53.09;101099.41;4953143;28;97012;-52
2022/10/10 02:34:46;;;;;;;0.30;0.27;;;16.50;99.90;;;17.41;52.11;101098.22;4945544;28;97251;-56
2022/10/10 02:37:15;;;;;;;0.60;0.30;;;16.60;99.60;;;17.44;52.83;101088.25;4951752;28;97533;-47
2022/10/10 02:39:47;;;;;;;0.20;0.10;;;16.60;99.90;;;17.48;52.77;101089.78;4947762;28;97124;-50
2022/10/10 02:42:16;;;;;;;0.10;0.10;;;16.70;99.90;;;17.54;52.55;101086.78;4951608;28;97577;-50
2022/10/10 02:44:44;;;;;;;0.77;0.20;;;16.80;99.90;;;17.60;52.19;101090.88;4942687;28;96842;-49
2022/10/10 02:47:10;;;;;;;0.20;0.10;;;16.90;99.90;;;17.65;52.18;101087.94;4944215;28;99070;-45
2022/10/10 02:49:35;;;;;;;0.70;0.70;;;17.00;99.90;;;17.65;51.89;101087.94;4951869;28;97552;-46
2022/10/10 02:52:02;;;;;;;0.63;0.30;;;17.00;99.90;;;17.65;51.76;101079.94;4940986;28;98512;-50
2022/10/10 02:54:28;;;;;;;0.10;0.10;;;16.90;99.90;;;17.66;52.10;101076.34;4951435;28;97507;-45
2022/10/10 02:56:54;;;;;;;0.10;0.10;;;16.90;99.90;;;17.66;51.46;101076.34;4948637;28;100730;-46
2022/10/10 02:59:19;;;;;;;0.30;0.20;;;17.00;99.50;;;17.64;52.00;101078.22;4949068;28;111370;-51
2022/10/10 03:01:45;;;;;;;0.70;0.10;;;16.90;99.90;;;17.65;51.73;101080.81;4950786;28;99173;-46
2022/10/10 03:04:11;;;;;;;0.10;0.10;;;16.90;99.90;;;17.65;51.96;101071.94;4952238;28;97228;-46
2022/10/10 03:06:37;;;;;;;0.10;0.10;;;16.80;99.90;;;17.64;51.71;101079.06;4950733;28;99506;-52
2022/10/10 03:09:04;;;;;;;0.10;0.10;;;16.80;99.90;;;17.65;51.96;101063.94;4947947;28;113365;-48
2022/10/10 03:11:30;;;;;;;0.00;0.00;;;16.90;99.90;;;17.64;52.05;101068.41;4958539;28;97576;-49
2022/10/10 03:13:56;;;;;;;0.00;0.00;;;16.90;99.90;;;17.65;51.79;101069.25;4951654;28;97647;-50
2022/10/10 03:16:22;;;;;;;0.27;0.23;;;16.90;99.90;;;17.66;51.72;101071.00;4956386;28;97693;-50
2022/10/10 03:18:47;;;;;;;0.30;0.17;;;16.90;99.90;;;17.66;51.81;101071.00;4946107;28;102354;-50
2022/10/10 03:21:13;;;;;;;0.10;0.10;;;16.90;99.90;;;17.62;51.71;101064.09;4959447;28;97366;-50
2022/10/10 03:23:39;;;;;;;0.20;0.17;;;16.80;99.80;;;17.59;51.82;101073.16;4949573;28;97166;-49
2022/10/10 03:26:06;;;;;;;0.10;0.10;;;16.80;99.90;;;17.60;51.93;101068.69;4951443;28;102810;-53
2022/10/10 03:28:31;;;;;;;0.10;0.10;;;16.80;99.90;;;17.56;52.34;101062.66;4959332;28;98259;-50
2022/10/10 03:30:57;;;;;;;0.30;0.30;;;16.70;99.90;;;17.54;51.82;101070.75;4953882;28;97208;-51
2022/10/10 03:33:23;;;;;;;0.60;0.10;;;16.70;99.30;;;17.52;52.45;101071.81;4958482;28;96725;-47
2022/10/10 03:35:49;;;;;;;0.57;0.10;;;16.70;99.90;;;17.55;52.08;101075.16;4953653;28;97121;-49
2022/10/10 03:38:15;;;;;;;0.50;0.13;;;16.80;99.90;;;17.55;52.22;101074.28;4956546;28;103879;-47
2022/10/10 03:40:42;;;;;;;0.20;0.10;;;16.70;99.90;;;17.50;52.21;101066.56;4949322;28;96876;-48
2022/10/10 03:43:10;;;;;;;0.27;0.10;;;16.70;99.90;;;17.53;51.51;101070.84;4960105;28;97159;-50
2022/10/10 03:45:36;;;;;;;0.03;0.03;;;16.70;99.50;;;17.47;51.75;101066.72;4957236;28;97297;-48
2022/10/10 03:48:02;;;;;;;0.20;0.10;;;16.60;99.00;;;17.48;52.69;101065.75;4951883;28;97187;-46
2022/10/10 03:50:28;;;;;;;0.10;0.10;;;16.60;99.90;;;17.52;52.21;101075.34;4953104;28;97037;-53
2022/10/10 03:52:54;;;;;;;0.50;0.30;;;16.70;99.90;;;17.48;52.09;101068.44;4955634;28;102571;-52
2022/10/10 03:55:20;;;;;;;0.00;0.00;;;16.60;99.90;;;17.47;52.34;101072.06;4958080;28;97783;-50
2022/10/10 03:57:46;;;;;;;0.10;0.10;;;16.60;99.90;;;17.46;52.18;101067.66;4952172;28;97932;-53
2022/10/10 04:00:12;;;;;;;0.13;0.13;;;16.60;99.80;;;17.44;52.50;101068.72;4956326;28;105840;-51
2022/10/10 04:02:38;;;;;;;0.30;0.10;;;16.50;99.90;;;17.38;52.26;101072.59;4946961;28;97482;-54
2022/10/10 04:05:04;;;;;;;0.87;0.10;;;16.50;99.90;;;17.40;52.62;101064.50;4955728;28;100122;-51
2022/10/10 04:07:31;;;;;;;0.30;0.10;;;16.50;99.90;;;17.44;52.35;101060.72;4959781;28;97211;-51
2022/10/10 04:09:57;;;;;;;0.73;0.20;;;16.60;99.90;;;17.48;52.49;101063.09;4954253;28;97486;-53
2022/10/10 04:12:22;;;;;;;0.27;0.20;;;16.70;99.90;;;17.53;52.36;101054.84;4956021;28;97248;-47
2022/10/10 04:14:48;;;;;;;0.10;0.10;;;16.80;99.90;;;17.57;51.87;101060.88;4953731;28;97953;-49
2022/10/10 04:17:14;;;;;;;0.33;0.20;;;16.80;99.90;;;17.58;52.09;101057.25;4956547;28;103446;-47
2022/10/10 04:19:40;;;;;;;0.30;0.20;;;16.80;99.90;;;17.59;52.17;101048.28;4951046;28;97421;-54
2022/10/10 04:22:06;;;;;;;0.10;0.10;;;16.90;99.90;;;17.61;52.04;101059.72;4958669;28;99868;-48
2022/10/10 04:24:32;;;;;;;0.20;0.20;;;16.90;99.90;;;17.58;51.00;101051.91;4954430;28;96907;-50
2022/10/10 04:26:58;;;;;;;0.43;0.10;;;16.80;99.60;;;17.53;52.24;101050.38;4952500;28;101036;-46
2022/10/10 04:29:23;;;;;;;0.17;0.17;;;16.70;99.90;;;17.54;51.47;101052.09;4957988;28;107232;-49
2022/10/10 04:31:49;;;;;;;0.23;0.10;;;16.80;99.20;;;17.55;52.31;101059.16;4953652;28;103784;-48
2022/10/10 04:34:15;;;;;;;0.10;0.00;;;16.80;99.90;;;17.61;52.16;101054.38;4959040;28;97307;-49
2022/10/10 04:36:41;;;;;;;0.00;0.00;;;16.90;99.90;;;17.66;51.77;101058.53;4954205;28;98487;-53
2022/10/10 04:39:08;;;;;;;0.30;0.13;;;17.00;99.90;;;17.73;51.77;101045.69;4957224;28;97246;-49
2022/10/10 04:41:34;;;;;;;0.10;0.10;;;17.10;99.90;;;17.77;51.31;101047.22;4960398;28;96793;-46
2022/10/10 04:44:00;;;;;;;0.10;0.10;;;17.20;99.90;;;17.80;51.32;101036.41;4951571;28;97559;-48
2022/10/10 04:46:26;;;;;;;0.10;0.10;;;17.20;99.90;;;17.80;51.23;101036.41;4958894;28;97739;-49
2022/10/10 04:48:51;;;;;;;0.43;0.40;;;17.20;99.90;;;17.73;51.14;101040.38;4949865;28;115120;-51
2022/10/10 04:51:17;;;;;;;0.73;0.13;;;17.00;99.10;;;17.69;51.79;101038.84;4959438;28;97124;-49
2022/10/10 04:53:52;;;;;;;0.03;0.03;;;16.90;99.90;;;17.67;51.44;101041.56;4950802;28;97536;-46
2022/10/10 04:56:18;;;;;;;1.40;0.43;;;16.90;99.90;;;17.67;51.78;101046.03;4950280;28;106381;-49
2022/10/10 04:58:44;;;;;;;0.33;0.30;;;16.90;99.90;;;17.68;51.92;101045.09;4953532;28;96927;-48
2022/10/10 05:01:09;;;;;;;0.00;0.00;;;16.90;99.90;;;17.63;51.69;101044.47;4958395;28;107068;-50
2022/10/10 05:03:35;;;;;;;0.97;0.30;;;16.80;99.90;;;17.52;50.59;101054.00;4954649;28;103281;-48
2022/10/10 05:06:01;;;;;;;0.30;0.30;;;16.60;98.70;;;17.42;52.37;101058.13;4944018;28;118062;-49
2022/10/10 05:08:26;;;;;;;0.50;0.20;;;16.40;99.90;;;17.42;52.47;101051.94;4956191;28;109683;-46
2022/10/10 05:10:52;;;;;;;0.43;0.27;;;16.40;99.90;;;17.35;52.07;101056.75;4952394;28;103008;-49
2022/10/10 05:13:18;;;;;;;1.17;0.10;;;16.30;99.90;;;17.29;53.00;101057.13;4956120;28;97304;-50
2022/10/10 05:15:44;;;;;;;0.27;0.20;;;16.30;99.90;;;17.31;52.92;101057.88;4951443;28;98290;-46
2022/10/10 05:18:10;;;;;;;0.83;0.60;;;16.30;99.90;;;17.27;52.23;101061.69;4952750;28;97554;-48
2022/10/10 05:20:36;;;;;;;0.00;0.00;;;16.20;99.90;;;17.25;53.30;101060.91;4958989;28;100326;-51
2022/10/10 05:23:02;;;;;;;0.10;0.10;;;16.20;99.90;;;17.27;53.01;101061.69;4947337;28;97464;-52
2022/10/10 05:25:28;;;;;;;0.20;0.20;;;16.20;99.90;;;17.27;53.02;101058.16;4956399;28;101809;-47
2022/10/10 05:27:54;;;;;;;0.53;0.23;;;16.30;99.90;;;17.25;52.16;101055.59;4954890;28;97137;-46
2022/10/10 05:30:20;;;;;;;0.20;0.10;;;16.20;99.90;;;17.21;52.84;101054.00;4956118;28;103518;-47
2022/10/10 05:32:46;;;;;;;0.50;0.30;;;16.20;99.90;;;17.18;53.35;101059.53;4949332;28;103368;-47
2022/10/10 05:35:12;;;;;;;0.10;0.10;;;16.10;99.90;;;17.26;53.04;101059.97;4956002;28;127899;-49
2022/10/10 05:37:38;;;;;;;0.30;0.20;;;16.30;99.90;;;17.35;52.60;101062.09;4954046;28;97552;-53
2022/10/10 05:40:04;;;;;;;0.07;0.07;;;16.50;99.90;;;17.38;52.18;101056.59;4953339;28;105375;-51
2022/10/10 05:42:30;;;;;;;0.00;0.00;;;16.60;99.90;;;17.44;52.91;101045.56;4960209;28;97074;-48
2022/10/10 05:44:56;;;;;;;0.30;0.17;;;16.70;99.90;;;17.65;52.10;101047.91;4958830;28;107712;-49
2022/10/10 05:47:22;;;;;;;0.47;0.23;;;17.00;99.90;;;17.77;51.90;101052.56;4963692;28;109106;-47
2022/10/10 05:49:48;;;;;;;0.10;0.00;;;17.30;99.90;;;17.84;51.45;101048.59;4960030;28;97572;-46
2022/10/10 05:52:14;;;;;;;0.27;0.10;;;17.40;99.90;;;17.87;51.20;101053.75;4959918;28;107647;-48
2022/10/10 05:54:40;;;;;;;0.10;0.10;;;17.30;99.90;;;17.71;51.18;101053.81;4953166;28;99808;-46
2022/10/10 05:57:05;;;;;;;0.63;0.17;;;17.00;99.60;;;17.64;51.77;101054.22;4961450;28;98872;-48
2022/10/10 05:59:31;;;;;;;0.23;0.07;;;16.80;99.90;;;17.65;51.47;101053.25;4964163;28;97063;-50
2022/10/10 06:01:57;;;;;;;0.27;0.10;;;16.80;99.90;;;17.74;51.76;101052.75;4955095;28;106723;-48
2022/10/10 06:04:23;;;;;;;0.20;0.20;;;17.10;99.90;;;17.81;51.41;101052.31;4959060;28;97132;-46
2022/10/10 06:06:49;;;;;;;0.10;0.10;;;17.30;99.90;;;17.88;51.41;101055.47;4957052;28;99090;-50
2022/10/10 06:09:16;;;;;;;0.50;0.30;;;17.40;99.90;;;17.86;51.14;101057.38;4955304;28;107385;-49
2022/10/10 06:11:42;;;;;;;1.33;0.17;;;17.30;99.90;;;17.83;51.25;101044.22;4951720;28;96995;-50
2022/10/10 06:14:09;;;;;;;0.07;0.07;;;17.20;99.90;;;17.90;51.60;101048.22;4954132;28;99911;-50
2022/10/10 06:16:35;;;;;;;0.07;0.07;;;17.30;99.90;;;17.87;51.21;101053.75;4956081;28;97069;-47
2022/10/10 06:19:02;;;;;;;0.43;0.37;;;17.20;99.90;;;17.90;51.26;101048.22;4950877;28;97440;-49
2022/10/10 06:21:28;;;;;;;0.20;0.10;;;17.30;99.90;;;17.94;51.21;101054.22;4954852;28;106771;-47
2022/10/10 06:23:54;;;;;;;0.10;0.10;;;17.30;99.90;;;17.96;51.03;101052.34;4948017;28;96770;-49
2022/10/10 06:26:20;;;;;;;0.33;0.30;;;17.40;99.90;;;17.89;51.18;101051.84;4955993;28;96948;-46
2022/10/10 06:28:45;;;;;;;0.03;0.00;;;17.20;99.90;;;17.87;51.28;101048.41;4951999;28;96705;-47
2022/10/10 06:31:14;;;;;;;0.10;0.10;;;17.20;99.90;;;17.91;51.19;101059.75;4951191;28;97354;-46
2022/10/10 06:33:44;;;;;;;0.13;0.10;;;17.30;99.90;;;17.85;51.21;101061.00;4946623;28;97563;-50
2022/10/10 06:38:45;;;;;;;0.20;0.10;;;17.10;99.90;;;17.75;51.26;101063.34;6054163;22;98660;-48
2022/10/10 06:41:12;;;;;;;0.30;0.20;;;17.00;99.90;;;17.73;51.59;101075.06;4945274;28;98426;-49
2022/10/10 06:43:38;;;;;;;0.27;0.20;;;16.90;99.90;;;17.71;51.63;101068.94;4945086;28;97411;-48
2022/10/10 06:46:04;;;;;;;0.00;0.00;;;16.90;99.90;;;17.74;51.79;101063.44;4931902;28;102010;-48
2022/10/10 06:48:31;;;;;;;0.27;0.10;;;17.00;99.90;;;17.79;50.98;101061.34;4940820;28;97130;-51
2022/10/10 06:51:03;;;;;;;0.20;0.10;;;17.20;99.90;;;17.79;51.51;101064.91;4939501;28;97638;-47
2022/10/10 06:53:30;;;;;;;0.37;0.30;;;17.10;99.90;;;17.74;51.15;101074.97;4937288;28;101063;-51
2022/10/10 06:55:56;;;;;;;0.10;0.10;;;17.00;99.90;;;17.64;51.46;101078.22;4934631;28;97504;-49
2022/10/10 06:58:23;;;;;;;0.00;0.00;;;16.80;99.90;;;17.61;51.76;101083.72;4940154;28;97660;-49
2022/10/10 07:01:01;;;;;;;1.83;0.43;;;16.70;99.90;;;17.51;50.87;101078.94;4942461;28;97158;-46
2022/10/10 07:03:29;;;;;;;0.10;0.10;;;16.60;99.90;;;17.50;52.65;101085.22;4941031;28;97475;-48
2022/10/10 07:05:58;;;;;;;0.20;0.20;;;16.60;99.90;;;17.52;52.01;101080.66;4934729;28;97587;-49
2022/10/10 07:08:24;;;;;;;0.13;0.13;;;16.70;99.90;;;17.44;52.58;101090.91;4934216;28;97272;-47
2022/10/10 07:10:50;;;;;;;0.40;0.10;;;16.60;99.90;;;17.47;52.07;101084.53;4935152;28;97255;-47
2022/10/10 07:13:17;;;;;;;0.10;0.10;;;16.60;99.90;;;17.69;52.04;101086.84;4946090;28;97819;-46
2022/10/10 07:15:43;;;;;;;0.20;0.20;;;17.00;99.90;;;17.70;50.51;101092.09;4941415;28;97536;-51
2022/10/10 07:18:10;;;;;;;0.87;0.43;;;17.10;99.90;;;17.88;50.78;101087.47;4946747;28;98448;-46
2022/10/10 07:20:36;;;;;;;0.30;0.20;;;17.40;99.90;;;18.09;51.10;101094.22;4947090;28;96938;-47
2022/10/10 07:23:03;;;;;;;0.00;0.00;;;17.80;99.90;;;18.20;50.65;101096.22;4932257;28;98922;-47
2022/10/10 07:25:29;;;;;;;0.40;0.10;;;17.90;99.90;;;18.32;50.42;101097.31;4945217;28;97622;-47
2022/10/10 07:27:55;;;;;;;0.10;0.10;;;18.10;99.90;;;18.25;48.62;101101.31;4934423;28;98529;-48
2022/10/10 07:30:23;;;;;;;0.60;0.10;;;18.00;99.20;;;18.24;50.08;101094.25;4941404;28;97483;-47
2022/10/10 07:32:49;;;;;;;0.13;0.13;;;17.90;99.90;;;18.24;47.08;101095.13;4924485;28;100500;-48
2022/10/10 07:35:15;;;;;;;0.20;0.20;;;17.90;99.90;;;18.16;48.86;101099.19;4943492;28;97187;-51
2022/10/10 07:37:41;;;;;;;0.30;0.10;;;17.80;99.90;;;18.19;50.63;101101.66;4938639;28;97154;-52
2022/10/10 07:40:08;;;;;;;0.20;0.17;;;17.80;99.90;;;18.29;50.40;101102.84;4940683;28;97646;-49
2022/10/10 07:42:34;;;;;;;1.37;0.40;;;17.90;99.90;;;18.25;47.61;101112.84;4943980;28;98771;-48
2022/10/10 07:45:00;;;;;;;0.20;0.20;;;18.00;99.50;;;18.19;47.64;101107.00;4940203;28;109677;-48
2022/10/10 07:47:26;;;;;;;0.23;0.20;;;17.90;99.70;;;18.30;47.94;101112.56;4934029;28;97570;-47
2022/10/10 07:49:52;;;;;;;0.63;0.50;;;18.00;99.90;;;18.43;49.85;101121.56;4938850;28;97367;-46
2022/10/10 07:52:17;;;;;;;0.00;0.00;;;18.20;99.90;;;18.51;49.58;101107.72;4943317;28;103969;-51
2022/10/10 07:54:43;;;;;;;0.10;0.10;;;18.30;99.90;;;18.57;49.48;101100.19;4939903;28;97723;-46
2022/10/10 07:57:09;;;;;;;0.63;0.10;;;18.50;99.90;;;18.70;49.14;101100.31;4949146;28;97272;-49
2022/10/10 07:59:35;;;;;;;0.43;0.20;;;18.60;99.90;;;18.79;48.92;101106.88;4947018;28;97294;-53
2022/10/10 08:02:00;;;;;;;1.10;0.20;;;18.80;99.90;;;18.79;48.80;101106.88;4942434;28;105856;-49
2022/10/10 08:04:26;;;;;;;0.63;0.40;;;18.70;99.90;;;18.76;48.55;101104.41;4939397;28;118259;-51
2022/10/10 08:06:52;;;;;;;0.30;0.20;;;18.60;99.80;;;18.78;47.34;101099.81;4940998;28;110620;-50
2022/10/10 08:09:18;;;;;;;1.40;0.93;;;18.70;98.70;;;18.72;48.34;101101.94;4936986;28;105609;-49
2022/10/10 08:11:43;;;;;;;0.17;0.17;;;18.60;99.10;;;18.76;49.01;101112.44;4944419;28;107355;-51
2022/10/10 08:14:09;;;;;;;0.20;0.20;;;18.50;99.90;;;18.82;48.73;101117.41;4939195;28;97992;-51
2022/10/10 08:16:35;;;;;;;0.30;0.30;;;18.60;99.90;;;18.91;48.54;101117.66;4932678;28;98468;-48
2022/10/10 08:19:01;;;;;;;0.10;0.03;;;18.80;99.90;;;18.96;48.66;101112.91;4932578;28;96947;-46
2022/10/10 08:21:27;;;;;;;0.10;0.10;;;18.90;99.80;;;19.05;48.54;101108.78;4917943;28;97807;-48
2022/10/10 08:23:54;;;;;;;0.10;0.10;;;19.10;99.60;;;19.16;48.20;101100.06;4915174;28;110081;-48
2022/10/10 08:26:19;;;;;;;0.10;0.10;;;19.20;99.50;;;19.20;48.27;101096.25;4921072;28;98910;-50
2022/10/10 08:28:47;;;;;;;0.40;0.40;;;19.30;99.30;;;19.25;46.63;101097.69;4918984;28;97599;-53
2022/10/10 08:31:18;;;;;;;0.40;0.20;;;19.30;98.10;;;19.21;47.86;101098.81;4919810;28;97219;-50
2022/10/10 08:33:45;;;;;;;0.17;0.10;;;19.20;99.00;;;19.26;48.06;101104.75;4913643;28;101030;-49
2022/10/10 08:36:18;;;;;;;0.10;0.07;;;19.30;99.30;;;19.32;48.11;101107.00;4920666;28;97658;-51
2022/10/10 08:38:45;;;;;;;0.73;0.40;;;19.40;99.20;;;19.33;47.78;101098.03;4920691;28;97297;-50
2022/10/10 08:41:20;;;;;;;0.10;0.10;;;19.40;99.10;;;19.38;47.93;101102.19;4922883;28;99683;-49
2022/10/10 08:43:56;;;;;;;0.20;0.20;;;19.40;99.10;;;19.43;47.68;101100.09;4917314;28;96846;-50
2022/10/10 08:46:46;;;;;;;0.40;0.10;;;19.50;99.10;;;19.46;47.76;101108.78;4921667;28;97143;-49
2022/10/10 08:49:36;;;;;;;0.10;0.10;;;19.50;99.00;;;19.50;47.59;101104.06;4923835;28;98079;-48
2022/10/10 08:52:38;;;;;;;0.13;0.13;;;19.60;98.90;;;19.53;47.44;101114.59;4919519;28;98010;-48
2022/10/10 08:55:29;;;;;;;0.13;0.13;;;19.60;98.90;;;19.53;46.27;101111.94;4921734;28;101926;-48
2022/10/10 08:58:00;;;;;;;0.10;0.10;;;19.60;98.80;;;19.49;47.59;101110.38;4920949;28;97928;-50
2022/10/10 09:00:31;;;;;;;0.30;0.23;;;19.40;99.10;;;19.43;47.62;101114.34;4922195;28;97190;-50
2022/10/10 09:02:59;;;;;;;0.20;0.20;;;19.40;99.10;;;19.46;47.74;101115.94;4915387;28;97649;-51
2022/10/10 09:05:59;;;;;;;0.27;0.23;;;19.50;99.10;;;19.50;47.55;101114.78;4920153;28;98674;-50
2022/10/10 09:09:11;;;;;;;0.37;0.37;;;19.50;99.30;;;19.51;47.30;101113.81;4903155;28;96851;-48
2022/10/10 09:12:26;;;;;;;0.40;0.20;;;19.60;98.40;;;19.44;47.52;101115.19;4920545;28;97608;-46
2022/10/10 09:15:22;;;;;;;0.10;0.10;;;19.40;98.70;;;19.45;47.67;101116.91;4915834;28;100374;-47
2022/10/10 09:18:01;;;;;;;0.20;0.20;;;19.50;99.00;;;19.30;47.55;101124.97;4922125;28;97455;-50
2022/10/10 09:20:48;;;;;;;1.60;0.27;;;19.30;99.10;;;19.37;48.23;101124.56;4925204;28;97123;-49
2022/10/10 09:23:21;;;;;;;0.00;0.00;;;19.30;99.60;;;19.31;48.26;101123.16;4937357;28;97283;-48
2022/10/10 09:26:11;;;;;;;0.87;0.40;;;19.30;99.40;;;19.28;48.44;101121.53;4918043;28;98841;-49
2022/10/10 09:28:47;;;;;;;0.80;0.23;;;19.20;99.70;;;19.32;47.71;101120.38;4923085;28;98055;-46
2022/10/10 09:31:20;;;;;;;0.40;0.40;;;19.30;99.50;;;19.31;48.15;101126.69;4919934;28;98751;-49
2022/10/10 09:34:07;;;;;;;0.03;0.03;;;19.20;99.60;;;19.40;47.78;101124.38;4919263;28;97527;-48
2022/10/10 09:36:36;;;;;;;0.30;0.10;;;19.40;99.30;;;19.43;48.01;101124.19;4921164;28;97899;-49
2022/10/10 09:39:19;;;;;;;3.37;0.33;;;19.50;99.10;;;19.50;47.87;101117.44;4916184;28;98433;-46
2022/10/10 09:41:58;;;;;;;0.27;0.10;;;19.50;99.80;;;19.50;47.61;101125.47;4916982;28;97633;-50
2022/10/10 09:44:23;;;;;;;0.13;0.10;;;19.50;99.10;;;19.47;47.72;101120.34;4923600;28;97306;-52
2022/10/10 09:46:49;;;;;;;0.93;0.63;;;19.50;99.30;;;19.47;47.83;101120.34;4916419;28;98105;-46
2022/10/10 09:49:18;;;;;;;0.30;0.20;;;19.50;99.00;;;19.51;47.66;101122.69;4922227;28;109371;-52
2022/10/10 09:51:45;;;;;;;0.50;0.10;;;19.60;99.00;;;19.51;47.60;101116.50;4921134;28;97429;-49
2022/10/10 09:54:15;;;;;;;0.30;0.30;;;19.60;98.80;;;19.55;47.47;101123.41;4924606;28;96767;-52
2022/10/10 09:56:48;;;;;;;1.30;0.33;;;19.70;98.80;;;19.60;47.23;101115.94;4932782;28;98536;-50
2022/10/10 09:59:44;;;;;;;0.20;0.20;;;19.70;98.60;;;19.58;47.62;101117.84;4933759;28;96700;-48
2022/10/10 10:02:25;;;;;;;0.13;0.00;;;19.70;98.60;;;19.65;47.41;101123.66;4937858;28;97721;-48
2022/10/10 10:04:52;;;;;;;0.10;0.10;;;19.80;98.50;;;19.67;47.27;101111.88;4942153;28;97456;-48
2022/10/10 10:07:31;;;;;;;0.73;0.60;;;19.80;98.60;;;19.67;47.88;101111.00;4937000;28;100932;-49
2022/10/10 10:10:03;;;;;;;0.70;0.57;;;19.80;99.30;;;19.66;48.14;101112.84;4939628;28;97483;-49
2022/10/10 10:12:39;;;;;;;0.27;0.27;;;19.70;99.10;;;19.69;48.19;101111.81;4950318;28;97667;-47
2022/10/10 10:15:16;;;;;;;0.40;0.37;;;19.70;99.30;;;19.69;47.94;101115.34;4954891;28;97198;-46
2022/10/10 10:17:42;;;;;;;0.90;0.67;;;19.70;98.80;;;19.67;47.50;101119.91;4937330;28;97986;-49
2022/10/10 10:20:29;;;;;;;0.27;0.20;;;19.70;98.90;;;19.69;47.68;101119.81;4946893;28;97182;-50
2022/10/10 10:22:55;;;;;;;1.03;0.30;;;19.80;98.70;;;19.74;47.31;101123.91;4940681;28;98852;-49
2022/10/10 10:25:30;;;;;;;0.67;0.53;;;19.80;98.90;;;19.78;48.01;101125.41;4945014;28;99324;-48
2022/10/10 10:28:15;;;;;;;0.67;0.33;;;19.80;99.50;;;19.79;49.13;101121.78;4943844;28;97790;-47